SEATTLE-TACOMA INTL

KSEA (SEA)
Seattle, Washington
Towered

Vatsim Metar:
KSEA 260753Z 03013KT 10SM FEW250 22/09 A3009 RMK AO2 SLP191 T02220089 403060144

No ATC Online

Traffic

Inbound:
Ident
Type
Name
ETA
Phase
SWA4178
B737
Troy Salisbury KSEA
08:57 Z
Descent
DAL3499
CRJ7
Christopher Taylor KATL
Boarding
DAL1440
A320
Gavin Cole KMCO
09:46 Z
Cruse
AF1
B748
MA SEQM
14:43 Z
Climb

Outbound:
None